createdAt,value
2022-12-26T00:00:41.019Z,65.18
2022-12-26T00:03:07.855Z,69.07
2022-12-26T00:05:37.965Z,58.28
2022-12-26T00:08:05.084Z,55.60
2022-12-26T00:10:32.342Z,61.60
2022-12-26T00:13:40.071Z,52.50
2022-12-26T00:15:45.892Z,61.17
2022-12-26T00:18:12.531Z,55.67
2022-12-26T00:20:39.534Z,55.35
2022-12-26T00:23:06.412Z,55.90
2022-12-26T00:25:34.552Z,61.60
2022-12-26T00:28:01.609Z,58.00
2022-12-26T00:30:28.486Z,52.03
2022-12-26T00:32:55.358Z,50.30
2022-12-26T00:35:22.488Z,54.85
2022-12-26T00:37:49.260Z,56.10
2022-12-26T00:40:16.157Z,56.85
2022-12-26T00:42:43.141Z,59.83
2022-12-26T00:45:10.327Z,65.57
2022-12-26T00:47:37.039Z,61.25
2022-12-26T00:50:14.119Z,59.10
2022-12-26T00:52:42.428Z,44.97
2022-12-26T00:55:10.062Z,52.08
2022-12-26T00:57:36.781Z,55.85
2022-12-26T01:00:05.246Z,51.63
2022-12-26T01:02:38.453Z,46.72
2022-12-26T01:05:07.033Z,44.80
2022-12-26T01:08:20.103Z,43.03
2022-12-26T01:10:23.496Z,43.33
2022-12-26T01:12:50.396Z,44.55
2022-12-26T01:15:17.421Z,47.00
2022-12-26T01:17:44.219Z,38.17
2022-12-26T01:20:11.298Z,39.30
2022-12-26T01:22:38.011Z,36.90
2022-12-26T01:25:05.436Z,39.10
2022-12-26T01:27:32.068Z,32.80
2022-12-26T01:29:58.813Z,37.08
2022-12-26T01:32:25.633Z,34.75
2022-12-26T01:34:55.575Z,41.38
2022-12-26T01:37:25.921Z,40.88
2022-12-26T01:39:53.219Z,38.50
2022-12-26T01:42:22.963Z,40.55
2022-12-26T01:45:17.237Z,40.88
2022-12-26T01:47:49.845Z,42.72
2022-12-26T01:50:28.443Z,33.40
2022-12-26T01:52:59.894Z,38.38
2022-12-26T01:55:29.010Z,35.75
2022-12-26T01:58:01.721Z,40.28
2022-12-26T02:00:28.747Z,32.72
2022-12-26T02:03:14.522Z,40.70
2022-12-26T02:05:42.583Z,39.85
2022-12-26T02:08:16.140Z,34.63
2022-12-26T02:10:52.863Z,41.15
2022-12-26T02:13:20.058Z,40.17
2022-12-26T02:15:47.774Z,34.42
2022-12-26T02:18:14.390Z,36.47
2022-12-26T02:21:11.870Z,38.97
2022-12-26T02:24:12.576Z,42.85
2022-12-26T02:27:01.917Z,41.70
2022-12-26T02:29:57.723Z,34.47
2022-12-26T02:32:27.256Z,41.95
2022-12-26T02:35:00.719Z,34.70
2022-12-26T02:37:39.415Z,44.30
2022-12-26T02:40:24.633Z,44.67
2022-12-26T02:42:59.532Z,42.97
2022-12-26T02:46:03.423Z,38.22
2022-12-26T02:48:51.158Z,40.00
2022-12-26T02:51:59.170Z,35.58
2022-12-26T02:54:54.848Z,37.85
2022-12-26T02:57:43.600Z,41.45
2022-12-26T03:00:34.333Z,42.55
2022-12-26T03:03:44.953Z,58.85
2022-12-26T03:06:33.224Z,58.88
2022-12-26T03:09:44.709Z,63.03
2022-12-26T03:12:38.924Z,65.18
2022-12-26T03:15:13.582Z,60.80
2022-12-26T03:17:49.447Z,63.38
2022-12-26T03:20:26.299Z,52.53
2022-12-26T03:23:11.696Z,70.13
2022-12-26T03:26:07.184Z,67.38
2022-12-26T03:28:34.158Z,64.75
2022-12-26T03:31:04.818Z,64.68
2022-12-26T03:33:53.211Z,49.63
2022-12-26T03:36:47.418Z,60.08
2022-12-26T03:39:57.502Z,58.50
2022-12-26T03:42:45.705Z,61.92
2022-12-26T03:45:54.298Z,61.20
2022-12-26T03:49:05.416Z,60.40
2022-12-26T03:51:53.813Z,60.25
2022-12-26T03:55:09.637Z,61.72
2022-12-26T03:58:04.858Z,57.15
2022-12-26T04:00:52.175Z,54.38
2022-12-26T04:03:39.434Z,59.50
2022-12-26T04:06:33.757Z,53.22
2022-12-26T04:09:25.422Z,58.85
2022-12-26T04:12:13.679Z,67.70
2022-12-26T04:15:10.869Z,58.75
2022-12-26T04:18:05.112Z,55.53
2022-12-26T04:21:39.833Z,51.63
2022-12-26T04:24:30.854Z,51.25
2022-12-26T04:27:21.604Z,48.50
2022-12-26T04:30:06.775Z,48.90
2022-12-26T04:33:06.597Z,52.72
2022-12-26T04:36:05.609Z,48.40
2022-12-26T04:39:03.539Z,51.80
2022-12-26T04:41:50.523Z,65.43
2022-12-26T04:44:19.326Z,55.13
2022-12-26T04:46:48.315Z,49.78
2022-12-26T04:49:36.197Z,54.75
2022-12-26T04:52:06.002Z,51.92
2022-12-26T04:54:32.908Z,48.10
2022-12-26T04:56:59.628Z,51.45
2022-12-26T04:59:26.549Z,58.40
2022-12-26T05:02:11.904Z,51.65
2022-12-26T05:04:57.200Z,50.28
2022-12-26T05:07:51.156Z,54.50
2022-12-26T05:10:28.567Z,52.13
2022-12-26T05:12:56.158Z,54.90
2022-12-26T05:15:22.945Z,57.38
2022-12-26T05:18:08.076Z,61.13
2022-12-26T05:20:53.449Z,54.03
2022-12-26T05:23:42.640Z,40.67
2022-12-26T05:26:54.399Z,49.50
2022-12-26T05:29:21.165Z,40.30
2022-12-26T05:31:47.853Z,41.22
2022-12-26T05:34:18.040Z,40.58
2022-12-26T05:36:48.803Z,35.45
2022-12-26T05:39:15.809Z,41.97
2022-12-26T05:41:43.881Z,37.50
2022-12-26T05:44:10.958Z,34.80
2022-12-26T05:46:38.754Z,31.83
2022-12-26T05:49:06.370Z,45.35
2022-12-26T05:51:33.229Z,42.60
2022-12-26T05:54:00.245Z,38.83
2022-12-26T05:56:27.351Z,35.90
2022-12-26T05:58:59.338Z,36.22
2022-12-26T06:01:28.173Z,53.65
2022-12-26T06:03:58.053Z,46.75
2022-12-26T06:06:25.768Z,54.17
2022-12-26T06:08:54.268Z,35.97
2022-12-26T06:11:22.108Z,33.45
2022-12-26T06:13:48.787Z,33.80
2022-12-26T06:16:17.809Z,34.13
2022-12-26T06:18:45.294Z,30.50
2022-12-26T06:21:17.130Z,37.42
2022-12-26T06:23:44.069Z,42.25
2022-12-26T06:26:12.972Z,34.13
2022-12-26T06:28:40.962Z,37.22
2022-12-26T06:31:12.675Z,35.70
2022-12-26T06:33:39.572Z,40.40
2022-12-26T06:36:09.126Z,51.53
2022-12-26T06:38:35.793Z,54.25
2022-12-26T06:41:06.084Z,67.93
2022-12-26T06:43:33.187Z,72.97
2022-12-26T06:46:01.597Z,67.53
2022-12-26T06:48:29.759Z,78.13
2022-12-26T06:50:57.070Z,66.70
2022-12-26T06:53:25.127Z,73.10
2022-12-26T06:55:52.034Z,99.50
2022-12-26T06:58:21.491Z,142.02
2022-12-26T07:00:48.367Z,135.45
2022-12-26T07:03:15.196Z,188.93
2022-12-26T07:05:41.815Z,139.02
2022-12-26T07:08:08.883Z,132.55
2022-12-26T07:10:37.068Z,95.95
2022-12-26T07:13:03.734Z,64.30
2022-12-26T07:15:31.044Z,65.10
2022-12-26T07:17:58.087Z,57.58
2022-12-26T07:20:24.696Z,66.53
2022-12-26T07:22:51.407Z,68.57
2022-12-26T07:25:17.976Z,57.47
2022-12-26T07:27:44.585Z,58.53
2022-12-26T07:30:11.544Z,54.72
2022-12-26T07:32:38.307Z,50.13
2022-12-26T07:35:05.693Z,42.40
2022-12-26T07:37:32.670Z,40.50
2022-12-26T07:39:59.610Z,45.58
2022-12-26T07:42:26.744Z,54.50
2022-12-26T07:44:53.627Z,43.72
2022-12-26T07:47:20.331Z,56.03
2022-12-26T07:49:47.030Z,46.20
2022-12-26T07:52:13.984Z,50.85
2022-12-26T07:54:40.695Z,40.50
2022-12-26T07:57:46.276Z,47.10
2022-12-26T07:59:54.427Z,55.42
2022-12-26T08:02:21.536Z,45.55
2022-12-26T08:04:48.429Z,36.15
2022-12-26T08:07:15.214Z,36.95
2022-12-26T08:09:43.204Z,27.77
2022-12-26T08:12:10.056Z,19.95
2022-12-26T08:14:37.894Z,19.20
2022-12-26T08:17:04.799Z,25.88
2022-12-26T08:19:31.561Z,29.38
2022-12-26T08:21:58.324Z,29.77
2022-12-26T08:24:25.225Z,30.52
2022-12-26T08:26:51.902Z,32.97
2022-12-26T08:29:18.592Z,35.17
2022-12-26T08:31:45.342Z,42.42
2022-12-26T08:34:13.413Z,48.70
2022-12-26T08:36:40.784Z,38.70
2022-12-26T08:39:08.226Z,34.83
2022-12-26T08:41:34.914Z,39.28
2022-12-26T08:44:26.870Z,37.70
2022-12-26T08:46:48.176Z,35.33
2022-12-26T08:49:14.888Z,30.75
2022-12-26T08:51:41.701Z,33.00
2022-12-26T08:54:08.380Z,31.92
2022-12-26T08:56:35.114Z,29.10
2022-12-26T08:59:02.012Z,25.05
2022-12-26T09:01:31.239Z,25.38
2022-12-26T09:04:01.073Z,25.48
2022-12-26T09:06:28.679Z,28.27
2022-12-26T09:08:55.738Z,29.33
2022-12-26T09:11:28.937Z,33.15
2022-12-26T09:13:57.718Z,32.83
2022-12-26T09:16:31.535Z,38.15
2022-12-26T09:19:02.092Z,35.67
2022-12-26T09:21:30.181Z,32.97
2022-12-26T09:24:02.305Z,23.63
2022-12-26T09:26:29.557Z,31.60
2022-12-26T09:28:58.028Z,35.17
2022-12-26T09:31:27.954Z,29.55
2022-12-26T09:33:54.901Z,24.13
2022-12-26T09:36:24.841Z,29.15
2022-12-26T09:38:52.740Z,27.77
2022-12-26T09:41:25.462Z,35.50
2022-12-26T09:44:15.150Z,37.35
2022-12-26T09:47:26.883Z,35.20
2022-12-26T09:50:03.175Z,36.85
2022-12-26T09:52:39.333Z,28.50
2022-12-26T09:55:23.959Z,34.40
2022-12-26T09:57:52.611Z,33.35
2022-12-26T10:00:34.150Z,33.50
2022-12-26T10:03:01.637Z,29.30
2022-12-26T10:05:39.625Z,25.23
2022-12-26T10:08:36.354Z,24.17
2022-12-26T10:11:04.732Z,28.27
2022-12-26T10:13:50.172Z,25.60
2022-12-26T10:16:25.815Z,25.80
2022-12-26T10:19:13.000Z,27.88
2022-12-26T10:21:46.626Z,26.88
2022-12-26T10:24:23.752Z,26.63
2022-12-26T10:27:02.153Z,27.58
2022-12-26T10:29:35.708Z,28.75
2022-12-26T10:32:08.876Z,25.88
2022-12-26T10:34:43.335Z,26.65
2022-12-26T10:37:15.529Z,24.77
2022-12-26T10:39:57.430Z,22.45
2022-12-26T10:42:36.591Z,25.55
2022-12-26T10:45:12.573Z,19.30
2022-12-26T10:47:43.003Z,19.20
2022-12-26T10:50:27.352Z,19.95
2022-12-26T10:52:55.994Z,19.63
2022-12-26T10:55:31.628Z,17.83
2022-12-26T10:58:25.645Z,12.90
2022-12-26T11:00:52.244Z,17.83
2022-12-26T11:03:20.615Z,19.58
2022-12-26T11:06:12.108Z,30.58
2022-12-26T11:08:50.090Z,17.48
2022-12-26T11:11:25.615Z,18.58
2022-12-26T11:14:02.123Z,13.57
2022-12-26T11:16:38.551Z,15.23
2022-12-26T11:19:05.517Z,18.70
2022-12-26T11:21:33.435Z,19.65
2022-12-26T11:24:09.235Z,16.20
2022-12-26T11:26:37.711Z,19.95
2022-12-26T11:29:19.172Z,14.50
2022-12-26T11:32:00.858Z,18.48
2022-12-26T11:34:36.147Z,19.55
2022-12-26T11:37:05.949Z,16.00
2022-12-26T11:39:38.246Z,23.35
2022-12-26T11:44:45.379Z,24.67
2022-12-26T11:47:16.049Z,19.90
2022-12-26T11:50:01.906Z,23.80
2022-12-26T11:52:34.190Z,22.77
2022-12-26T11:57:33.735Z,15.45
2022-12-26T12:00:43.179Z,15.30
2022-12-26T12:03:32.347Z,23.10
2022-12-26T12:06:31.892Z,22.30
2022-12-26T12:09:25.151Z,26.45
2022-12-26T12:12:29.687Z,24.80
2022-12-26T12:15:02.684Z,23.35
2022-12-26T12:17:48.202Z,28.02
2022-12-26T12:20:27.127Z,29.52
2022-12-26T12:22:56.682Z,34.58
2022-12-26T12:25:40.210Z,28.10
2022-12-26T12:28:25.570Z,28.27
2022-12-26T12:31:11.686Z,26.05
2022-12-26T12:34:14.929Z,21.15
2022-12-26T12:37:12.149Z,21.00
2022-12-26T12:39:55.080Z,28.30
2022-12-26T12:42:28.120Z,27.05
2022-12-26T12:45:05.878Z,25.48
2022-12-26T12:47:35.593Z,29.58
2022-12-26T12:50:32.937Z,28.27
2022-12-26T12:53:23.230Z,29.52
2022-12-26T12:56:09.538Z,29.75
2022-12-26T12:58:58.051Z,25.67
2022-12-26T13:01:35.727Z,30.13
2022-12-26T13:04:41.150Z,30.55
2022-12-26T13:07:18.183Z,29.92
2022-12-26T13:10:01.031Z,39.80
2022-12-26T13:12:35.093Z,30.38
2022-12-26T13:15:31.275Z,26.42
2022-12-26T13:18:08.512Z,25.08
2022-12-26T13:20:44.996Z,38.30
2022-12-26T13:23:54.153Z,21.95
2022-12-26T13:26:27.061Z,24.63
2022-12-26T13:29:12.532Z,22.92
2022-12-26T13:31:40.726Z,24.27
2022-12-26T13:34:16.669Z,29.48
2022-12-26T13:36:46.741Z,23.27
2022-12-26T13:39:23.718Z,21.27
2022-12-26T13:42:16.465Z,32.67
2022-12-26T13:44:44.883Z,25.95
2022-12-26T13:47:34.428Z,25.60
2022-12-26T13:50:38.693Z,31.17
2022-12-26T13:53:25.682Z,30.30
2022-12-26T13:55:57.103Z,22.85
2022-12-26T13:58:45.141Z,32.30
2022-12-26T14:01:59.180Z,35.78
2022-12-26T14:04:48.089Z,29.27
2022-12-26T14:07:23.881Z,29.40
2022-12-26T14:09:58.762Z,30.70
2022-12-26T14:12:52.362Z,29.40
2022-12-26T14:15:46.690Z,35.33
2022-12-26T14:18:48.347Z,33.90
2022-12-26T14:21:33.065Z,42.60
2022-12-26T14:24:12.983Z,38.13
2022-12-26T14:26:48.494Z,37.85
2022-12-26T14:29:27.654Z,36.53
2022-12-26T14:32:14.163Z,39.58
2022-12-26T14:34:56.990Z,35.92
2022-12-26T14:37:42.090Z,51.60
2022-12-26T14:40:25.780Z,55.55
2022-12-26T14:43:10.531Z,53.55
2022-12-26T14:45:39.479Z,52.67
2022-12-26T14:48:15.135Z,56.78
2022-12-26T14:50:51.858Z,63.13
2022-12-26T14:53:30.242Z,67.70
2022-12-26T14:56:03.089Z,65.93
2022-12-26T14:58:41.970Z,78.57
2022-12-26T15:01:15.600Z,81.40
2022-12-26T15:04:00.753Z,83.82
2022-12-26T15:06:39.444Z,83.75
2022-12-26T15:09:33.992Z,85.32
2022-12-26T15:12:28.562Z,77.95
2022-12-26T15:15:25.497Z,87.53
2022-12-26T15:18:26.370Z,63.05
2022-12-26T15:21:14.314Z,64.53
2022-12-26T15:24:22.196Z,60.25
2022-12-26T15:26:55.021Z,51.80
2022-12-26T15:29:43.788Z,33.88
2022-12-26T15:32:16.011Z,40.90
2022-12-26T15:34:58.628Z,29.55
2022-12-26T15:37:28.665Z,36.13
2022-12-26T15:40:14.894Z,28.05
2022-12-26T15:43:00.509Z,33.95
2022-12-26T15:45:33.677Z,58.58
2022-12-26T15:48:00.272Z,70.28
2022-12-26T15:50:31.936Z,71.80
2022-12-26T15:53:31.621Z,71.60
2022-12-26T15:56:13.438Z,83.45
2022-12-26T15:59:09.901Z,75.90
2022-12-26T16:01:45.126Z,63.42
2022-12-26T16:04:25.726Z,72.97
2022-12-26T16:07:01.692Z,77.78
2022-12-26T16:09:46.645Z,62.90
2022-12-26T16:12:24.403Z,79.18
2022-12-26T16:15:04.695Z,82.55
2022-12-26T16:17:31.553Z,64.90
2022-12-26T16:19:58.253Z,77.47
2022-12-26T16:22:46.537Z,68.40
2022-12-26T16:25:21.986Z,70.22
2022-12-26T16:27:52.935Z,104.57
2022-12-26T16:30:26.771Z,102.10
2022-12-26T16:32:54.468Z,84.05
2022-12-26T16:35:28.465Z,86.10
2022-12-26T16:37:58.471Z,77.18
2022-12-26T16:40:30.583Z,108.13
2022-12-26T16:42:59.077Z,119.47
2022-12-26T16:45:26.914Z,99.03
2022-12-26T16:47:55.480Z,108.72
2022-12-26T16:50:25.825Z,96.80
2022-12-26T16:53:11.103Z,92.47
2022-12-26T16:55:44.875Z,91.72
2022-12-26T16:58:19.285Z,85.25
2022-12-26T17:00:59.373Z,101.45
2022-12-26T17:03:52.089Z,106.50
2022-12-26T17:08:58.520Z,80.40
2022-12-26T17:11:35.278Z,88.72
2022-12-26T17:14:04.403Z,83.63
2022-12-26T17:16:33.065Z,86.13
2022-12-26T17:19:16.506Z,83.32
2022-12-26T17:21:43.362Z,87.88
2022-12-26T17:24:18.981Z,96.38
2022-12-26T17:27:06.930Z,84.80
2022-12-26T17:29:38.083Z,76.22
2022-12-26T17:32:08.919Z,90.68
2022-12-26T17:34:40.017Z,81.47
2022-12-26T17:37:20.476Z,81.38
2022-12-26T17:40:02.438Z,80.90
2022-12-26T17:42:30.198Z,84.50
2022-12-26T17:44:58.023Z,75.60
2022-12-26T17:47:28.700Z,74.07
2022-12-26T17:49:56.553Z,74.30
2022-12-26T17:52:28.528Z,73.30
2022-12-26T17:54:58.309Z,61.10
2022-12-26T17:57:27.539Z,67.50
2022-12-26T17:59:55.430Z,66.07
2022-12-26T18:02:22.716Z,58.03
2022-12-26T18:04:50.492Z,52.25
2022-12-26T18:07:30.948Z,45.42
2022-12-26T18:09:59.051Z,42.42
2022-12-26T18:12:25.645Z,48.17
2022-12-26T18:14:57.543Z,42.85
2022-12-26T18:17:29.039Z,41.65
2022-12-26T18:19:57.769Z,40.17
2022-12-26T18:22:24.797Z,39.22
2022-12-26T18:24:51.437Z,46.97
2022-12-26T18:27:22.677Z,40.33
2022-12-26T18:29:50.370Z,38.88
2022-12-26T18:32:29.637Z,46.70
2022-12-26T18:34:56.805Z,39.80
2022-12-26T18:37:25.915Z,47.67
2022-12-26T18:39:53.791Z,44.42
2022-12-26T18:42:20.607Z,41.50
2022-12-26T18:44:47.336Z,46.38
2022-12-26T18:47:18.294Z,42.58
2022-12-26T18:49:45.750Z,50.28
2022-12-26T18:52:17.687Z,47.00
2022-12-26T18:54:44.843Z,201.50
2022-12-26T18:57:18.332Z,141.65
2022-12-26T18:59:45.234Z,121.45
2022-12-26T19:02:16.832Z,101.35
2022-12-26T19:04:44.364Z,114.38
2022-12-26T19:07:11.522Z,127.13
2022-12-26T19:09:38.441Z,102.22
2022-12-26T19:12:05.413Z,152.48
2022-12-26T19:14:32.204Z,275.40
2022-12-26T19:16:58.748Z,142.02
2022-12-26T19:19:29.654Z,204.48
2022-12-26T19:21:56.423Z,190.50
2022-12-26T19:24:24.154Z,217.75
2022-12-26T19:26:50.763Z,209.50
2022-12-26T19:29:17.493Z,207.52
2022-12-26T19:31:44.545Z,183.07
2022-12-26T19:34:11.259Z,168.50
2022-12-26T19:36:38.042Z,190.80
2022-12-26T19:39:04.937Z,119.63
2022-12-26T19:41:31.943Z,177.35
2022-12-26T19:44:00.941Z,162.32
2022-12-26T19:46:28.550Z,181.63
2022-12-26T19:48:55.568Z,169.23
2022-12-26T19:51:22.880Z,163.75
2022-12-26T19:53:50.021Z,167.70
2022-12-26T19:56:25.449Z,160.52
2022-12-26T19:58:56.403Z,161.23
2022-12-26T20:01:29.526Z,201.48
2022-12-26T20:04:01.724Z,164.93
2022-12-26T20:06:30.296Z,180.80
2022-12-26T20:09:00.636Z,151.82
2022-12-26T20:11:33.588Z,159.27
2022-12-26T20:14:01.912Z,159.55
2022-12-26T20:17:03.982Z,176.88
2022-12-26T20:19:15.903Z,152.77
2022-12-26T20:21:42.608Z,162.55
2022-12-26T20:24:11.095Z,142.60
2022-12-26T20:26:38.378Z,120.32
2022-12-26T20:29:05.083Z,117.72
2022-12-26T20:31:33.136Z,109.93
2022-12-26T20:34:00.486Z,120.22
2022-12-26T20:36:33.231Z,107.47
2022-12-26T20:39:03.250Z,97.32
2022-12-26T20:41:30.316Z,86.28
2022-12-26T20:43:57.694Z,95.32
2022-12-26T20:46:32.162Z,90.05
2022-12-26T20:49:00.057Z,99.13
2022-12-26T20:51:36.548Z,92.00
2022-12-26T20:54:05.131Z,91.28
2022-12-26T20:56:32.467Z,98.07
2022-12-26T20:58:59.800Z,82.03
2022-12-26T21:01:28.295Z,83.15
2022-12-26T21:03:56.293Z,98.40
2022-12-26T21:06:32.738Z,88.40
2022-12-26T21:08:59.892Z,96.30
2022-12-26T21:11:32.150Z,94.40
2022-12-26T21:16:29.537Z,80.30
2022-12-26T21:18:57.732Z,86.88
2022-12-26T21:21:27.721Z,91.57
2022-12-26T21:24:10.777Z,112.40
2022-12-26T21:26:39.590Z,117.57
2022-12-26T21:29:08.985Z,128.02
2022-12-26T21:31:37.439Z,149.15
2022-12-26T21:34:05.097Z,121.57
2022-12-26T21:36:31.899Z,162.77
2022-12-26T21:38:58.661Z,185.65
2022-12-26T21:41:25.720Z,160.88
2022-12-26T21:43:54.631Z,150.00
2022-12-26T21:46:21.983Z,155.98
2022-12-26T21:48:50.344Z,141.23
2022-12-26T21:51:18.899Z,138.13
2022-12-26T21:53:46.587Z,133.30
2022-12-26T21:56:15.281Z,125.28
2022-12-26T21:59:02.212Z,112.07
2022-12-26T22:01:29.845Z,109.13
2022-12-26T22:04:15.566Z,91.53
2022-12-26T22:06:42.784Z,98.95
2022-12-26T22:09:10.029Z,95.15
2022-12-26T22:11:55.380Z,84.55
2022-12-26T22:14:22.742Z,92.30
2022-12-26T22:16:53.542Z,99.30
2022-12-26T22:19:20.474Z,121.47
2022-12-26T22:21:47.448Z,144.23
2022-12-26T22:24:15.005Z,141.95
2022-12-26T22:26:42.408Z,130.45
2022-12-26T22:29:09.311Z,120.82
2022-12-26T22:31:37.883Z,123.38
2022-12-26T22:34:16.352Z,126.57
2022-12-26T22:36:43.845Z,118.05
2022-12-26T22:39:16.255Z,118.28
2022-12-26T22:41:44.052Z,107.95
2022-12-26T22:44:10.636Z,111.63
2022-12-26T22:46:37.548Z,94.88
2022-12-26T22:49:04.263Z,102.32
2022-12-26T22:51:31.191Z,112.45
2022-12-26T22:54:01.366Z,98.47
2022-12-26T22:56:28.584Z,116.90
2022-12-26T22:58:56.873Z,116.85
2022-12-26T23:01:24.328Z,114.22
2022-12-26T23:03:51.132Z,133.27
2022-12-26T23:06:23.339Z,122.18
2022-12-26T23:08:53.031Z,116.50
2022-12-26T23:11:20.917Z,115.70
2022-12-26T23:13:48.390Z,118.50
2022-12-26T23:16:34.033Z,134.35
2022-12-26T23:19:28.035Z,132.20
2022-12-26T23:21:56.043Z,128.23
2022-12-26T23:24:25.888Z,124.15
2022-12-26T23:27:21.633Z,119.65
2022-12-26T23:30:08.927Z,106.00
2022-12-26T23:32:37.067Z,105.97
2022-12-26T23:35:05.117Z,105.25
2022-12-26T23:37:31.862Z,90.35
2022-12-26T23:39:58.606Z,107.35
2022-12-26T23:42:25.374Z,98.25
2022-12-26T23:44:52.149Z,88.32
2022-12-26T23:47:19.069Z,88.28
2022-12-26T23:49:45.747Z,88.30
2022-12-26T23:52:12.449Z,96.13
2022-12-26T23:54:39.427Z,91.18
2022-12-26T23:57:06.033Z,93.47
2022-12-26T23:59:32.678Z,97.45
